Airfield :
LOGIN :

Register | Disclaimer

   EN    FR    IT 

 










Legend :    VFR   Marginal VFR   IFR   Intensive IFR   Very Intensive IFR
Visi :
Ceiling :
>= 8 km
>= 3000ft
5 to 8 km
1000 to 3000 ft
1500m to 5 km
500 to 1000 ft
800 to 1500m
200 to 500 ft
< 800m
< 200 ft
Symbols :   Thunderstorms  Fog  Heavy snow  Heavy precipitations  Wind > 20 kt
SIGMETs :     Misc.  Thunderstorms  Icing  Turbulence  Mountain Waves  Volcanic Ashes







- Airport Elevation : 87 ft
- IATA code : AHO


LIEA - Fertilia Alghero

CURRENT METAR :
  • 211450Z 18005KT 120V220 9999 FEW040 31/19 Q1015

EXPIRED METARs :
  • 211420Z 20005KT 150V260 9999 FEW040 30/19 Q1015
  • 211350Z 18008KT 140V220 9999 FEW040 30/19 Q1015
  • 211320Z 25007KT 200V290 9999 -RA FEW040 29/19 Q1016
  • 211250Z 28010KT CAVOK 29/18 Q1017
  • 211220Z 25009KT CAVOK 31/17 Q1016
  • 211150Z 17009KT 130V210 CAVOK 33/16 Q1016

TAF TAF LIEA
Valid from the 21 at 12:00 until the 22 at 12:00 UTC


211100Z 2112/2212 07010KT 9999 SCT040
TEMPO 2115/2121 4000 TSRA
BECMG 2206/2208 17014KT
No reported NOTAMs for that airfield.



MET'MAP, your aeronautical weather chart ! - Copyright ORBIFLY December 2007 - Disclaimer

ORBIFLY MET'MAP TEAM :

Programming & Development : Alexandra Zaïnal
Concept & Development : Baudouin d'Aumeries
Co-Development & Prog : Marc-Olivier Méhu
Technical & hardware support : Manuel Goepfert

Contact : metmap@orbifly.com




SOURCES & CREDITS :

   NOAA